M I D A S
Marine Information and Data Acquisition System
Tripno 1006 of the Zeeleeuw from 2005-08-29 10:29:05 to 2005-08-29 15:20:27
Back to CruiseResearch ActivitiesStationsMapUnderway DataData graphs

EquipmentUnitsComments
TimeDGPSUTC
LatitudeDGPSDM.mWGS84
LongitudeDGPSDM.mWGS84
SpeedMeteo Stationm/sRelative wind speed
DirectionMeteo StationdegRelative wind direction
TemperatureMeteo Stationdeg CelciusAir temperature
PressureMeteo StationPaAtmospheric pressure
HumidityMeteo Station%Relative humidity
Missing or incorrect values are displayed as -999
Metereological data collected by the RV Zeeleeuw from 2005-08-29 06:28:51 to 2005-08-29 15:33:22
Time Latitude Longitude Speed Direction Temperature Pressure Humidity
2005-08-29 06:29 51°13.596 2°56.094 1.7 117 15.5 102200 76
2005-08-29 06:30 51°13.596 2°56.094 1.2 71 15.5 102200 76
2005-08-29 06:31 51°13.597 2°56.095 2.5 69 15.5 102200 76
2005-08-29 06:32 51°13.598 2°56.095 2.2 71 15.5 102210 76
2005-08-29 06:33 51°13.598 2°56.095 2.3 72 15.5 102200 76
2005-08-29 06:34 51°13.598 2°56.095 2.1 65 15.5 102210 75
2005-08-29 06:35 51°13.598 2°56.094 1.7 52 15.6 102210 76
2005-08-29 06:36 51°13.597 2°56.094 1.4 63 15.6 102210 76
2005-08-29 06:37 51°13.598 2°56.094 2.4 52 15.7 102210 76
2005-08-29 06:38 51°13.598 2°56.094 1.7 32 15.8 102210 76
2005-08-29 06:39 51°13.598 2°56.094 0.7 73 -999 -999 -999
2005-08-29 06:40 51°13.599 2°56.095 0.6 107 15.8 102210 75
2005-08-29 06:41 51°13.598 2°56.095 1.2 52 15.9 102210 75
2005-08-29 06:42 51°13.599 2°56.095 1.7 59 15.9 102210 75
2005-08-29 06:43 51°13.599 2°56.095 1 75 15.9 102210 75
2005-08-29 06:44 51°13.599 2°56.095 1.3 55 16 102210 74
2005-08-29 06:45 51°13.599 2°56.095 1.6 53 16 102210 75
2005-08-29 06:46 51°13.599 2°56.096 1.7 71 16.1 102210 75
2005-08-29 06:47 51°13.598 2°56.095 1.5 61 16 102200 74
2005-08-29 06:48 51°13.597 2°56.095 1.6 68 16 102210 75
2005-08-29 06:49 51°13.597 2°56.094 1.8 70 16 102200 75
2005-08-29 06:50 51°13.598 2°56.095 1.1 71 16.1 102200 75
2005-08-29 06:51 51°13.598 2°56.095 1.5 39 16.1 102210 75
2005-08-29 06:52 51°13.599 2°56.096 1.3 59 16.1 102210 75
2005-08-29 06:53 51°13.598 2°56.094 1.5 68 16.1 102210 75
2005-08-29 06:54 51°13.598 2°56.094 1.1 67 16.2 102210 74
2005-08-29 06:55 51°13.597 2°56.094 1.1 73 16.2 102210 74
2005-08-29 06:56 51°13.598 2°56.095 2.1 71 16.3 102210 74
2005-08-29 06:57 51°13.598 2°56.094 1.6 54 16.3 102210 73
2005-08-29 06:58 51°13.598 2°56.094 1.6 38 16.3 102210 74
2005-08-29 06:59 51°13.598 2°56.094 0.9 45 16.3 102210 74
2005-08-29 07:00 51°13.598 2°56.094 0.7 55 16.3 102210 74
2005-08-29 07:01 51°13.599 2°56.094 0.7 64 16.3 102210 74
2005-08-29 07:02 51°13.599 2°56.095 2 71 16.3 102210 74
2005-08-29 07:03 51°13.596 2°56.095 1.1 68 16.3 102210 74
2005-08-29 07:04 51°13.597 2°56.094 1.2 95 16.3 102210 74
2005-08-29 07:05 51°13.596 2°56.094 1.2 41 16.3 102220 74
2005-08-29 07:06 51°13.597 2°56.095 2 57 16.4 102220 74
2005-08-29 07:07 51°13.598 2°56.094 1.7 48 16.4 102220 74
2005-08-29 07:08 51°13.597 2°56.094 1.9 68 16.4 102220 74
2005-08-29 07:09 51°13.596 2°56.094 0.9 65 16.4 102220 74
2005-08-29 07:10 51°13.596 2°56.094 0.6 52 16.5 102230 74
2005-08-29 07:11 51°13.596 2°56.094 1.4 66 16.5 102230 74
2005-08-29 07:12 51°13.597 2°56.095 1.1 112 16.5 102230 73
2005-08-29 07:13 51°13.598 2°56.095 1.5 40 16.6 102230 73
2005-08-29 07:14 51°13.598 2°56.094 0.5 100 16.6 102230 73
2005-08-29 07:15 51°13.597 2°56.094 1.4 42 16.7 102230 73
2005-08-29 07:16 51°13.598 2°56.094 0.6 139 16.7 102230 73
2005-08-29 07:17 51°13.597 2°56.094 0.9 58 16.8 102230 72
2005-08-29 07:18 51°13.597 2°56.095 0.9 48 16.9 102230 72
2005-08-29 07:19 51°13.596 2°56.096 1.1 60 16.9 102230 72
2005-08-29 07:20 51°13.597 2°56.098 0.8 57 16.9 102230 72
2005-08-29 07:21 51°13.599 2°56.097 2.2 44 16.8 102230 72
2005-08-29 07:22 51°13.598 2°56.095 0.8 81 16.8 102230 72
2005-08-29 07:23 51°13.596 2°56.096 1 48 16.8 102230 72
2005-08-29 07:24 51°13.596 2°56.094 2.4 60 16.8 102230 72
2005-08-29 07:25 51°13.596 2°56.095 1.9 59 16.8 102230 72
2005-08-29 07:26 51°13.597 2°56.095 0.8 27 16.8 102230 71
2005-08-29 07:27 51°13.598 2°56.095 1.3 58 16.9 102230 72
2005-08-29 07:28 51°13.598 2°56.095 1.2 69 17 102230 72
2005-08-29 07:29 51°13.599 2°56.095 0.9 44 17 102240 72
2005-08-29 07:30 51°13.599 2°56.095 1.8 56 17.1 102240 72
2005-08-29 07:31 51°13.596 2°56.097 1.9 75 17.1 102240 71
2005-08-29 07:32 51°13.597 2°56.096 1.3 112 17.2 102240 70
2005-08-29 07:33 51°13.599 2°56.096 0.9 127 17.2 102240 70
2005-08-29 07:34 51°13.599 2°56.096 1.2 79 17.2 102240 71
2005-08-29 07:35 51°13.599 2°56.096 0.8 54 17.3 102240 71
2005-08-29 07:36 51°13.598 2°56.096 0.6 58 17.4 102240 71
2005-08-29 07:37 51°13.597 2°56.096 1 27 17.5 102240 70
2005-08-29 07:38 51°13.598 2°56.097 0.6 30 17.6 102250 71
2005-08-29 07:39 51°13.598 2°56.097 2.3 45 17.8 102250 70
2005-08-29 07:40 51°13.598 2°56.097 1.5 154 17.9 102250 68
2005-08-29 07:41 51°13.599 2°56.097 0.9 25 18 102250 68
2005-08-29 07:42 51°13.599 2°56.097 0.9 21 18 102250 68
2005-08-29 07:43 51°13.599 2°56.097 1.3 69 18.1 102250 68
2005-08-29 07:44 51°13.599 2°56.096 1.8 58 18.2 102250 67
2005-08-29 07:45 51°13.598 2°56.096 2.1 59 18.1 102250 67
2005-08-29 07:46 51°13.598 2°56.096 2.2 60 18 102250 67
2005-08-29 07:47 51°13.599 2°56.097 2.6 58 17.9 102250 67
2005-08-29 07:48 51°13.599 2°56.097 1.9 48 17.8 102250 68
2005-08-29 07:49 51°13.599 2°56.097 1.6 53 17.8 102250 68
2005-08-29 07:50 51°13.599 2°56.096 1.1 75 17.9 102250 67
2005-08-29 07:51 51°13.599 2°56.096 0.7 86 17.9 102250 67
2005-08-29 07:52 51°13.598 2°56.096 1.2 52 17.9 102260 67
2005-08-29 07:53 51°13.598 2°56.095 1.3 56 18 102260 67
2005-08-29 07:54 51°13.598 2°56.095 1.4 91 18.1 102260 66
2005-08-29 07:55 51°13.598 2°56.095 0.5 36 18.2 102270 66
2005-08-29 07:56 51°13.598 2°56.094 1.1 33 18.3 102260 66
2005-08-29 07:57 51°13.598 2°56.094 0.9 38 18.4 102270 66
2005-08-29 07:58 51°13.598 2°56.094 1.5 143 18.6 102270 66
2005-08-29 07:59 51°13.599 2°56.094 1.6 162 18.7 102270 65
2005-08-29 08:00 51°13.599 2°56.094 1.3 150 18.5 102270 65
2005-08-29 08:01 51°13.598 2°56.094 1.6 146 18.5 102270 65
2005-08-29 08:02 51°13.598 2°56.094 0.7 186 18.5 102270 66
2005-08-29 08:03 51°13.598 2°56.094 1.1 138 18.5 102270 66
2005-08-29 08:04 51°13.598 2°56.095 0.6 77 18.4 102270 66
2005-08-29 08:05 51°13.598 2°56.096 1 132 18.5 102270 66
2005-08-29 08:06 51°13.599 2°56.096 1.8 146 18.5 102270 66
2005-08-29 08:07 51°13.599 2°56.096 1.2 135 18.5 102270 65
2005-08-29 08:08 51°13.599 2°56.096 1.6 116 18.5 102270 65
2005-08-29 08:09 51°13.599 2°56.096 1.4 135 18.5 102270 65
2005-08-29 08:10 51°13.599 2°56.096 2 149 18.5 102270 65
2005-08-29 08:11 51°13.596 2°56.096 2 156 18.5 102270 65
2005-08-29 08:12 51°13.597 2°56.097 1 140 18.6 102270 65
2005-08-29 08:13 51°13.599 2°56.096 1 171 18.6 102270 65
2005-08-29 08:14 51°13.599 2°56.096 1.4 144 18.6 102270 65
2005-08-29 08:15 51°13.6 2°56.095 0.7 89 18.6 102270 65
2005-08-29 08:16 51°13.6 2°56.095 1.1 31 18.7 102270 65
2005-08-29 08:17 51°13.599 2°56.095 1.2 29 18.9 102260 65
2005-08-29 08:18 51°13.599 2°56.094 1 225 19.1 102260 65
2005-08-29 08:19 51°13.599 2°56.095 1.3 177 19.3 102260 64
2005-08-29 08:20 51°13.599 2°56.094 1.3 120 19.4 102260 63
2005-08-29 08:21 51°13.599 2°56.094 0.8 132 19.4 102260 63
2005-08-29 08:22 51°13.599 2°56.095 1.3 152 19.4 102260 63
2005-08-29 08:23 51°13.598 2°56.095 0.8 154 19.3 102270 62
2005-08-29 08:24 51°13.598 2°56.095 1.1 139 19.2 102260 63
2005-08-29 08:25 51°13.598 2°56.095 1.4 182 19.3 102270 63
2005-08-29 08:26 51°13.599 2°56.095 0.7 155 19.3 102260 63
2005-08-29 08:27 51°13.599 2°56.094 1.2 138 19.3 102260 62
2005-08-29 08:28 51°13.598 2°56.094 0.8 174 19.4 102260 61
2005-08-29 08:29 51°13.599 2°56.094 0.9 185 19.3 102260 61
2005-08-29 08:30 51°13.599 2°56.094 1.2 130 19.3 102260 60
2005-08-29 08:31 51°13.599 2°56.093 1.2 122 19.4 102260 60
2005-08-29 08:32 51°13.6 2°56.094 1.1 136 19.4 102270 60
2005-08-29 08:33 51°13.599 2°56.093 0.5 148 19.4 102270 60
2005-08-29 08:34 51°13.599 2°56.094 1.1 182 19.4 102260 60
2005-08-29 08:35 51°13.598 2°56.095 2.5 174 19.6 102270 60
2005-08-29 08:36 51°13.598 2°56.095 1.1 156 19.6 102270 59
2005-08-29 08:37 51°13.599 2°56.095 0.8 181 19.6 102270 59
2005-08-29 08:38 51°13.598 2°56.094 0.9 188 19.6 102270 60
2005-08-29 08:39 51°13.599 2°56.095 1.9 172 19.6 102280 59
2005-08-29 08:40 51°13.598 2°56.095 1.3 169 19.6 102270 59
2005-08-29 08:41 51°13.598 2°56.095 0.3 182 19.6 102280 59
2005-08-29 08:42 51°13.598 2°56.095 0.8 191 19.7 102280 59
2005-08-29 08:43 51°13.598 2°56.095 2.2 156 19.9 102280 59
2005-08-29 08:44 51°13.598 2°56.095 0.5 174 19.9 102280 62
2005-08-29 08:45 51°13.599 2°56.094 1.2 163 20 102280 59
2005-08-29 08:46 51°13.598 2°56.094 2.3 175 20 102280 59
2005-08-29 08:47 51°13.598 2°56.094 1.5 188 20 102280 59
2005-08-29 08:48 51°13.598 2°56.094 1.4 185 20 102280 58
2005-08-29 08:49 51°13.597 2°56.094 1.5 206 20 102280 56
2005-08-29 08:50 51°13.597 2°56.095 1.5 175 20 102280 57
2005-08-29 08:51 51°13.597 2°56.096 1.2 207 20.2 102280 57
2005-08-29 08:52 51°13.598 2°56.095 0.8 193 20.2 102280 56
2005-08-29 08:53 51°13.598 2°56.095 0.5 166 20.2 102280 56
2005-08-29 08:54 51°13.599 2°56.095 0.8 200 20.3 102270 55
2005-08-29 08:55 51°13.599 2°56.094 1.8 141 20.4 102280 56
2005-08-29 08:56 51°13.598 2°56.096 0.9 138 20.4 102280 55
2005-08-29 08:57 51°13.599 2°56.096 1 146 20.4 102270 55
2005-08-29 08:58 51°13.598 2°56.096 0.9 160 20.3 102270 55
2005-08-29 08:59 51°13.6 2°56.096 0.2 160 20.3 102270 55
2005-08-29 09:00 51°13.599 2°56.096 0.1 160 20.3 102270 55
2005-08-29 09:01 51°13.601 2°56.096 0.4 160 20.5 102270 55
2005-08-29 09:02 51°13.598 2°56.095 1.1 205 20.5 102270 54
2005-08-29 09:03 51°13.599 2°56.094 0.9 186 20.6 102270 54
2005-08-29 09:04 51°13.597 2°56.092 1.1 152 20.6 102280 54
2005-08-29 09:05 51°13.599 2°56.09 1.9 174 20.5 102280 52
2005-08-29 09:06 51°13.594 2°56.096 2 164 20.4 102280 52
2005-08-29 09:07 51°13.561 2°56.145 0.5 102 20.3 102280 53
2005-08-29 09:08 51°13.55 2°56.225 1.1 223 20.4 102280 54
2005-08-29 09:09 51°13.538 2°56.205 1.5 240 20.5 102280 53
2005-08-29 09:10 51°13.538 2°56.21 0.9 243 20.6 102280 54
2005-08-29 09:11 51°13.538 2°56.214 0.9 204 20.7 102280 53
2005-08-29 09:12 51°13.548 2°56.196 2.6 323 20.8 102280 53
2005-08-29 09:13 51°13.568 2°56.124 1.7 328 20.9 102270 53
2005-08-29 09:14 51°13.588 2°56.06 1.5 10 20.9 102280 53
2005-08-29 09:15 51°13.609 2°56.002 1.6 287 21 102280 53
2005-08-29 09:16 51°13.632 2°55.946 1.1 -999 21.1 102270 53
2005-08-29 09:17 51°13.659 2°55.892 1.7 338 21.2 102280 51
2005-08-29 09:18 51°13.69 2°55.828 2 323 21.2 102270 50
2005-08-29 09:19 51°13.718 2°55.775 1.3 345 21.2 102270 50
2005-08-29 09:20 51°13.744 2°55.736 0.8 42 21.2 102270 50
2005-08-29 09:21 51°13.788 2°55.676 1.7 360 21.3 102270 49
2005-08-29 09:22 51°13.877 2°55.599 3.7 10 21.2 102270 49
2005-08-29 09:23 51°13.978 2°55.528 5.6 342 21 102270 49
2005-08-29 09:24 51°14.085 2°55.457 7 348 20.8 102270 51
2005-08-29 09:25 51°14.203 2°55.353 6.5 351 20.5 102270 56
2005-08-29 09:26 51°14.312 2°55.17 6.4 355 20.1 102270 62
2005-08-29 09:27 51°14.406 2°54.949 7.9 3 19.8 102270 64
2005-08-29 09:28 51°14.422 2°54.649 9.1 7 19.5 102270 65
2005-08-29 09:29 51°14.381 2°54.321 9.4 13 19.2 102280 66
2005-08-29 09:30 51°14.298 2°54.016 9.6 16 19.1 102280 66
2005-08-29 09:31 51°14.208 2°53.715 9.4 15 19 102280 65
2005-08-29 09:32 51°14.112 2°53.422 9.1 16 18.9 102290 66
2005-08-29 09:33 51°14 2°53.136 9.2 15 18.9 102280 68
2005-08-29 09:34 51°13.89 2°52.85 9.2 16 18.9 102290 69
2005-08-29 09:35 51°13.78 2°52.563 9.3 15 18.8 102290 68
2005-08-29 09:36 51°13.67 2°52.277 9.1 16 18.7 102280 68
2005-08-29 09:37 51°13.56 2°51.991 9.3 16 18.7 102280 67
2005-08-29 09:38 51°13.45 2°51.705 9.4 14 18.7 102290 67
2005-08-29 09:39 51°13.34 2°51.417 9 13 18.7 102290 67
2005-08-29 09:40 51°13.229 2°51.13 9.1 15 18.7 102290 68
2005-08-29 09:41 51°13.119 2°50.842 9 15 18.7 102290 68
2005-08-29 09:42 51°13.007 2°50.555 8.9 13 18.6 102290 67
2005-08-29 09:43 51°12.897 2°50.263 9 13 18.6 102280 67
2005-08-29 09:44 51°12.786 2°49.973 9.1 13 18.6 102290 67
2005-08-29 09:45 51°12.674 2°49.683 8.9 14 18.6 102280 67
2005-08-29 09:46 51°12.563 2°49.393 9.3 11 18.6 102270 67
2005-08-29 09:47 51°12.472 2°49.083 9.1 7 18.6 102280 68
2005-08-29 09:48 51°12.386 2°48.769 9 9 18.5 102280 67
2005-08-29 09:49 51°12.3 2°48.456 8.8 10 18.5 102280 68
2005-08-29 09:50 51°12.218 2°48.14 9.1 9 18.5 102280 68
2005-08-29 09:51 51°12.137 2°47.825 9.1 11 18.5 102280 68
2005-08-29 09:52 51°12.05 2°47.514 8.9 11 18.5 102280 68
2005-08-29 09:53 51°11.964 2°47.2 9 11 18.5 102280 68
2005-08-29 09:54 51°11.879 2°46.885 9.2 9 18.6 102290 69
2005-08-29 09:55 51°11.793 2°46.57 9.4 11 18.6 102280 69
2005-08-29 09:56 51°11.708 2°46.255 9.3 11 18.6 102280 69
2005-08-29 09:57 51°11.622 2°45.941 9.3 11 18.6 102280 70
2005-08-29 09:58 51°11.536 2°45.627 9.4 10 18.6 102280 70
2005-08-29 09:59 51°11.451 2°45.312 8.9 10 18.6 102280 71
2005-08-29 10:00 51°11.364 2°44.997 9.7 10 18.6 102280 71
2005-08-29 10:01 51°11.278 2°44.682 9.4 9 18.5 102280 70
2005-08-29 10:02 51°11.192 2°44.37 9.2 10 18.5 102270 70
2005-08-29 10:03 51°11.106 2°44.051 9.1 9 18.5 102270 70
2005-08-29 10:04 51°11.019 2°43.739 9 9 18.4 102270 69
2005-08-29 10:05 51°10.932 2°43.425 9.4 11 18.5 102280 70
2005-08-29 10:06 51°10.847 2°43.109 9.5 12 18.5 102280 70
2005-08-29 10:07 51°10.761 2°42.795 8.9 10 18.5 102280 69
2005-08-29 10:08 51°10.676 2°42.483 9.2 12 18.6 102280 70
2005-08-29 10:09 51°10.59 2°42.166 9.4 13 18.6 102280 70
2005-08-29 10:10 51°10.51 2°41.852 9.9 13 18.6 102280 70
2005-08-29 10:11 51°10.456 2°41.519 10.2 14 18.6 102290 70
2005-08-29 10:12 51°10.402 2°41.191 10 14 18.6 102290 70
2005-08-29 10:13 51°10.347 2°40.863 9.7 13 18.6 102290 71
2005-08-29 10:14 51°10.292 2°40.529 9.6 10 18.6 102290 71
2005-08-29 10:15 51°10.236 2°40.195 9.2 10 18.6 102290 71
2005-08-29 10:16 51°10.181 2°39.867 9.3 9 18.6 102290 71
2005-08-29 10:17 51°10.125 2°39.537 9.6 10 18.5 102280 70
2005-08-29 10:18 51°10.069 2°39.206 9.2 10 18.5 102280 70
2005-08-29 10:19 51°10.012 2°38.873 9.8 12 18.5 102290 71
2005-08-29 10:20 51°9.958 2°38.545 9.3 12 18.5 102290 71
2005-08-29 10:21 51°9.904 2°38.216 9.1 12 18.6 102290 71
2005-08-29 10:22 51°9.851 2°37.884 9 13 18.6 102290 72
2005-08-29 10:23 51°9.796 2°37.551 9 9 18.6 102290 71
2005-08-29 10:24 51°9.742 2°37.226 9.6 11 18.6 102290 72
2005-08-29 10:25 51°9.685 2°36.893 8.7 9 18.6 102290 72
2005-08-29 10:26 51°9.629 2°36.562 8.9 8 18.6 102300 72
2005-08-29 10:27 51°9.574 2°36.229 8.6 6 18.5 102290 72
2005-08-29 10:28 51°9.518 2°35.895 8.7 8 18.5 102290 73
2005-08-29 10:29 51°9.462 2°35.562 8.9 7 18.5 102290 74
2005-08-29 10:30 51°9.422 2°35.223 9.2 8 18.4 102290 74
2005-08-29 10:31 51°9.392 2°34.877 8.7 6 18.4 102290 74
2005-08-29 10:32 51°9.354 2°34.538 8.9 11 18.4 102290 75
2005-08-29 10:33 51°9.307 2°34.202 8.8 12 18.5 102300 76
2005-08-29 10:34 51°9.261 2°33.869 9.7 13 18.5 102290 77
2005-08-29 10:35 51°9.214 2°33.535 9.7 8 18.5 102290 78
2005-08-29 10:36 51°9.171 2°33.276 6.9 13 18.5 102290 79
2005-08-29 10:37 51°9.142 2°33.066 6.7 16 18.5 102300 79
2005-08-29 10:38 51°9.11 2°32.898 4.9 12 18.5 102300 80
2005-08-29 10:39 51°9.101 2°32.799 3.8 11 18.5 102300 80
2005-08-29 10:40 51°9.101 2°32.77 2.1 343 18.6 102300 80
2005-08-29 10:41 51°9.099 2°32.776 2.3 343 18.7 102300 80
2005-08-29 10:42 51°9.098 2°32.781 2 345 18.8 102300 80
2005-08-29 10:43 51°9.099 2°32.785 1.9 343 18.9 102290 80
2005-08-29 10:44 51°9.1 2°32.787 2 338 19 102300 80
2005-08-29 10:45 51°9.102 2°32.789 2.5 323 19 102300 79
2005-08-29 10:46 51°9.105 2°32.789 2.8 326 19.1 102300 79
2005-08-29 10:47 51°9.109 2°32.79 2.6 319 19.2 102300 79
2005-08-29 10:48 51°9.113 2°32.791 2.6 313 19.2 102300 79
2005-08-29 10:49 51°9.117 2°32.792 2.4 303 19.3 102300 79
2005-08-29 10:50 51°9.123 2°32.793 3.1 305 19.4 102300 79
2005-08-29 10:51 51°9.129 2°32.795 2.9 297 19.5 102300 78
2005-08-29 10:52 51°9.136 2°32.799 2.8 297 19.5 102300 78
2005-08-29 10:53 51°9.142 2°32.802 2.8 298 19.6 102300 77
2005-08-29 10:54 51°9.15 2°32.806 3 287 19.6 102300 77
2005-08-29 10:55 51°9.157 2°32.809 3.2 276 19.7 102290 77
2005-08-29 10:56 51°9.164 2°32.811 2.5 283 19.7 102300 76
2005-08-29 10:57 51°9.172 2°32.815 2.3 286 19.8 102300 76
2005-08-29 10:58 51°9.178 2°32.816 2.7 285 19.8 102300 76
2005-08-29 10:59 51°9.185 2°32.819 2.7 281 19.8 102300 75
2005-08-29 11:00 51°9.192 2°32.82 3.3 293 19.8 102300 75
2005-08-29 11:01 51°9.2 2°32.822 3.1 290 19.8 102310 75
2005-08-29 11:02 51°9.207 2°32.824 3.3 297 19.8 102310 74
2005-08-29 11:03 51°9.214 2°32.826 3.5 296 19.9 102310 74
2005-08-29 11:04 51°9.22 2°32.828 3.2 298 19.9 102310 74
2005-08-29 11:05 51°9.227 2°32.829 3.5 287 19.9 102310 74
2005-08-29 11:06 51°9.234 2°32.83 3.3 294 19.9 102310 74
2005-08-29 11:07 51°9.265 2°32.779 4.7 9 19.9 102300 74
2005-08-29 11:08 51°9.222 2°32.695 4 64 19.7 102300 75
2005-08-29 11:09 51°9.118 2°32.699 4.4 57 19.2 102300 76
2005-08-29 11:10 51°9.033 2°32.691 3.4 71 18.9 102310 78
2005-08-29 11:11 51°8.982 2°32.666 3 80 18.7 102310 80
2005-08-29 11:12 51°8.947 2°32.638 3.8 80 18.5 102310 79
2005-08-29 11:13 51°8.921 2°32.613 4 81 18.4 102320 80
2005-08-29 11:14 51°8.901 2°32.589 4.1 81 18.3 102320 79
2005-08-29 11:15 51°8.893 2°32.585 3.8 91 18.4 102310 79
2005-08-29 11:16 51°8.889 2°32.585 3.8 98 18.5 102320 79
2005-08-29 11:17 51°8.884 2°32.586 4.1 104 18.5 102320 79
2005-08-29 11:18 51°8.878 2°32.586 3.6 105 18.5 102320 78
2005-08-29 11:19 51°8.872 2°32.587 3.4 113 18.5 102320 77
2005-08-29 11:20 51°8.866 2°32.587 3.4 108 18.6 102320 78
2005-08-29 11:21 51°8.859 2°32.588 3.4 108 18.6 102310 77
2005-08-29 11:22 51°8.852 2°32.586 3.4 108 18.5 102320 75
2005-08-29 11:23 51°8.84 2°32.582 3.9 98 18.5 102320 76
2005-08-29 11:24 51°8.815 2°32.567 3.9 99 18.5 102320 76
2005-08-29 11:25 51°8.787 2°32.551 3.7 111 18.6 102320 78
2005-08-29 11:26 51°8.758 2°32.535 4.1 101 18.6 102320 79
2005-08-29 11:27 51°8.728 2°32.524 3.8 102 18.6 102320 78
2005-08-29 11:28 51°8.697 2°32.517 3.4 118 18.6 102320 78
2005-08-29 11:29 51°8.667 2°32.517 3 125 18.5 102320 78
2005-08-29 11:30 51°8.636 2°32.525 2.3 135 18.6 102320 79
2005-08-29 11:31 51°8.608 2°32.544 2.3 148 18.6 102320 79
2005-08-29 11:32 51°8.583 2°32.57 2.3 157 18.6 102320 79
2005-08-29 11:33 51°8.562 2°32.604 1.7 177 18.6 102320 78
2005-08-29 11:34 51°8.547 2°32.644 1.7 212 18.6 102320 79
2005-08-29 11:35 51°8.537 2°32.689 2.4 215 18.7 102320 77
2005-08-29 11:36 51°8.531 2°32.743 1.7 198 18.8 102330 76
2005-08-29 11:37 51°8.472 2°32.777 3.8 68 18.8 102320 76
2005-08-29 11:38 51°8.365 2°32.708 4.4 49 18.8 102320 76
2005-08-29 11:39 51°8.23 2°32.657 4.6 44 18.6 102320 77
2005-08-29 11:40 51°8.07 2°32.692 2.2 38 18.5 102320 77
2005-08-29 11:41 51°8.031 2°32.809 1.4 302 18.5 102320 77
2005-08-29 11:42 51°8.052 2°32.892 2.7 293 18.7 102320 77
2005-08-29 11:43 51°8.081 2°32.97 2.4 297 18.9 102320 76
2005-08-29 11:44 51°8.105 2°33.046 2 291 19.1 102320 75
2005-08-29 11:45 51°8.128 2°33.117 2 300 19.2 102320 74
2005-08-29 11:46 51°8.155 2°33.177 2.3 301 19.4 102320 74
2005-08-29 11:47 51°8.182 2°33.232 2.8 295 19.5 102320 74
2005-08-29 11:48 51°8.21 2°33.287 2.5 290 19.6 102320 72
2005-08-29 11:49 51°8.237 2°33.343 2.7 288 19.6 102320 71
2005-08-29 11:50 51°8.264 2°33.401 2.7 288 19.7 102320 72
2005-08-29 11:51 51°8.289 2°33.462 2.4 286 19.8 102320 71
2005-08-29 11:52 51°8.312 2°33.525 2.7 272 19.8 102320 71
2005-08-29 11:53 51°8.333 2°33.59 2.9 278 19.8 102320 70
2005-08-29 11:54 51°8.355 2°33.654 2.5 278 19.8 102320 70
2005-08-29 11:55 51°8.376 2°33.717 2.7 285 19.9 102320 70
2005-08-29 11:56 51°8.397 2°33.779 3.4 276 19.9 102330 70
2005-08-29 11:57 51°8.419 2°33.84 2.7 280 19.9 102330 70
2005-08-29 11:58 51°8.441 2°33.902 3.2 275 19.9 102330 71
2005-08-29 11:59 51°8.462 2°33.964 3.2 275 19.9 102330 70
2005-08-29 12:00 51°8.483 2°34.026 3.3 275 19.9 102330 69
2005-08-29 12:01 51°8.504 2°34.088 2.6 268 19.8 102330 69
2005-08-29 12:02 51°8.524 2°34.149 2.8 275 19.9 102330 69
2005-08-29 12:03 51°8.546 2°34.21 2.8 274 19.9 102320 70
2005-08-29 12:04 51°8.567 2°34.271 2.8 277 19.9 102330 70
2005-08-29 12:05 51°8.589 2°34.332 2.7 272 20 102330 70
2005-08-29 12:06 51°8.612 2°34.392 2.6 279 20 102330 69
2005-08-29 12:07 51°8.635 2°34.451 2.3 277 20 102330 70
2005-08-29 12:08 51°8.657 2°34.51 2.2 276 20 102320 69
2005-08-29 12:09 51°8.68 2°34.569 2.8 278 20 102320 68
2005-08-29 12:10 51°8.703 2°34.628 2.6 274 20 102320 68
2005-08-29 12:11 51°8.726 2°34.687 2.9 280 20.1 102320 68
2005-08-29 12:12 51°8.749 2°34.746 3.4 274 20.1 102330 68
2005-08-29 12:13 51°8.771 2°34.805 3.5 266 20.2 102330 68
2005-08-29 12:14 51°8.793 2°34.863 3.5 275 20.1 102330 68
2005-08-29 12:15 51°8.815 2°34.922 3.5 276 20.1 102330 68
2005-08-29 12:16 51°8.837 2°34.981 3.6 279 20.1 102330 67
2005-08-29 12:17 51°8.859 2°35.042 3.9 271 20.1 102330 68
2005-08-29 12:18 51°8.88 2°35.106 3.6 278 20.1 102330 67
2005-08-29 12:19 51°8.903 2°35.169 3.8 280 20.1 102330 68
2005-08-29 12:20 51°8.925 2°35.233 3.6 280 20.1 102330 68
2005-08-29 12:21 51°8.948 2°35.295 4.3 279 20.1 102330 68
2005-08-29 12:22 51°8.97 2°35.336 3.9 281 20 102330 67
2005-08-29 12:23 51°8.988 2°35.361 3.4 288 19.9 102330 67
2005-08-29 12:24 51°9.003 2°35.379 3.3 280 20 102330 68
2005-08-29 12:25 51°9.017 2°35.413 2.7 242 19.9 102330 67
2005-08-29 12:26 51°9.01 2°35.457 1.8 200 19.8 102320 66
2005-08-29 12:27 51°8.989 2°35.49 2.3 150 19.7 102320 68
2005-08-29 12:28 51°8.962 2°35.503 2 141 19.6 102320 67
2005-08-29 12:29 51°8.939 2°35.507 2.3 126 19.6 102320 67
2005-08-29 12:30 51°8.919 2°35.507 2.2 129 19.5 102320 68
2005-08-29 12:31 51°8.901 2°35.503 2.2 124 19.5 102320 69
2005-08-29 12:32 51°8.849 2°35.48 3.3 57 19.5 102320 69
2005-08-29 12:33 51°8.789 2°35.381 3.9 40 19.3 102310 70
2005-08-29 12:34 51°8.757 2°35.269 4 31 19.1 102320 70
2005-08-29 12:35 51°8.739 2°35.163 3.5 35 19 102310 71
2005-08-29 12:36 51°8.725 2°35.077 3.1 31 18.9 102320 73
2005-08-29 12:37 51°19.36 2°45.244 1 167 14.7 102200 81
2005-08-29 12:39 51°8.691 2°34.907 3.2 47 18.8 102320 71
2005-08-29 12:40 51°8.677 2°34.839 3.5 44 18.8 102320 73
2005-08-29 12:41 51°8.664 2°34.771 3.4 44 18.7 102330 71
2005-08-29 12:42 51°8.652 2°34.702 3.5 42 18.8 102320 74
2005-08-29 12:43 51°8.641 2°34.632 3.5 43 18.7 102330 74
2005-08-29 12:44 51°8.629 2°34.564 3.7 43 18.6 102330 72
2005-08-29 12:45 51°8.613 2°34.495 3.8 52 18.6 102330 72
2005-08-29 12:46 51°8.595 2°34.429 4 50 18.7 102330 72
2005-08-29 12:47 51°8.575 2°34.363 3.6 47 18.7 102330 72
2005-08-29 12:48 51°8.555 2°34.297 4 50 18.7 102330 71
2005-08-29 12:49 51°8.536 2°34.232 4.2 49 18.7 102330 72
2005-08-29 12:50 51°8.514 2°34.167 4.3 53 18.7 102330 71
2005-08-29 12:51 51°8.493 2°34.104 4.6 53 18.7 102340 71
2005-08-29 12:52 51°8.469 2°34.042 4.4 54 18.7 102340 70
2005-08-29 12:53 51°8.445 2°33.98 4.3 50 18.7 102340 72
2005-08-29 12:54 51°8.422 2°33.918 4.1 45 18.7 102340 71
2005-08-29 12:55 51°8.399 2°33.856 4.2 49 18.7 102330 71
2005-08-29 12:56 51°8.375 2°33.794 3.8 44 18.7 102340 70
2005-08-29 12:57 51°8.352 2°33.731 3.5 48 18.8 102340 71
2005-08-29 12:58 51°8.329 2°33.668 3.3 46 18.8 102340 70
2005-08-29 12:59 51°8.306 2°33.605 3.2 46 18.8 102340 71
2005-08-29 13:00 51°8.284 2°33.54 3.1 43 18.8 102340 71
2005-08-29 13:01 51°8.262 2°33.476 3.2 41 18.9 102340 71
2005-08-29 13:02 51°8.239 2°33.412 3.3 40 18.8 102340 72
2005-08-29 13:03 51°8.217 2°33.347 3.1 42 18.8 102340 72
2005-08-29 13:04 51°8.194 2°33.282 3.1 39 18.9 102340 73
2005-08-29 13:05 51°8.171 2°33.218 3.4 36 18.9 102340 72
2005-08-29 13:06 51°8.149 2°33.154 3.8 40 18.9 102340 72
2005-08-29 13:07 51°8.126 2°33.089 4 38 18.9 102340 72
2005-08-29 13:08 51°8.104 2°33.025 3.7 39 18.9 102340 72
2005-08-29 13:09 51°8.081 2°32.96 3.9 42 18.9 102350 72
2005-08-29 13:10 51°8.058 2°32.891 4 33 18.9 102340 72
2005-08-29 13:11 51°8.043 2°32.816 3.8 20 19 102350 73
2005-08-29 13:12 51°8.037 2°32.737 3.9 359 19.2 102350 72
2005-08-29 13:13 51°8.034 2°32.658 4.4 20 19.4 102340 70
2005-08-29 13:14 51°8.028 2°32.576 4.6 13 19.4 102350 70
2005-08-29 13:15 51°8.025 2°32.495 3.9 12 19.5 102350 70
2005-08-29 13:16 51°8.023 2°32.428 3.8 11 19.5 102350 70
2005-08-29 13:17 51°8.022 2°32.374 3.6 7 19.5 102350 70
2005-08-29 13:18 51°8.021 2°32.329 3.6 360 19.6 102350 70
2005-08-29 13:19 51°8.021 2°32.293 3.2 357 19.6 102350 70
2005-08-29 13:20 51°8.02 2°32.261 3 352 19.7 102350 71
2005-08-29 13:21 51°8.02 2°32.234 2.6 343 19.9 102350 70
2005-08-29 13:22 51°8.051 2°32.179 5.5 329 19.9 102340 69
2005-08-29 13:23 51°8.17 2°32.262 6 335 19.9 102340 69
2005-08-29 13:24 51°8.328 2°32.471 6.4 337 19.8 102340 69
2005-08-29 13:25 51°8.49 2°32.689 6.4 336 19.8 102340 70
2005-08-29 13:26 51°8.656 2°32.904 7.1 336 19.8 102330 70
2005-08-29 13:27 51°8.827 2°33.108 6.6 347 19.7 102330 70
2005-08-29 13:28 51°8.998 2°33.311 6.3 341 19.8 102330 71
2005-08-29 13:29 51°9.171 2°33.518 6.4 336 19.7 102330 69
2005-08-29 13:30 51°9.341 2°33.72 5.4 337 19.7 102330 70
2005-08-29 13:31 51°9.512 2°33.93 5.8 337 19.7 102330 70
2005-08-29 13:32 51°9.678 2°34.146 5.8 338 19.7 102330 70
2005-08-29 13:33 51°9.842 2°34.359 6.3 325 19.7 102330 70
2005-08-29 13:34 51°10.009 2°34.569 6.2 332 19.6 102330 69
2005-08-29 13:35 51°10.175 2°34.784 6.9 334 19.6 102340 70
2005-08-29 13:36 51°10.34 2°34.998 6.2 326 19.5 102340 70
2005-08-29 13:37 51°10.506 2°35.211 6.5 334 19.5 102340 71
2005-08-29 13:38 51°10.671 2°35.42 6.1 329 19.4 102340 70
2005-08-29 13:39 51°10.837 2°35.635 6.2 334 19.4 102340 71
2005-08-29 13:40 51°11.001 2°35.844 6.6 331 19.4 102340 71
2005-08-29 13:41 51°11.167 2°36.054 6.1 329 19.4 102340 70
2005-08-29 13:42 51°11.333 2°36.264 6.2 334 19.4 102340 71
2005-08-29 13:43 51°11.499 2°36.474 5.7 332 19.4 102340 71
2005-08-29 13:44 51°11.668 2°36.678 6.2 330 19.4 102340 71
2005-08-29 13:45 51°11.844 2°36.871 6.1 327 19.4 102330 71
2005-08-29 13:46 51°12.02 2°37.055 6.4 333 19.4 102340 70
2005-08-29 13:47 51°12.197 2°37.243 6 334 19.4 102340 71
2005-08-29 13:48 51°12.372 2°37.433 5.8 328 19.4 102340 71
2005-08-29 13:49 51°12.541 2°37.638 6.2 333 19.4 102340 72
2005-08-29 13:50 51°12.709 2°37.843 6.3 327 19.4 102340 72
2005-08-29 13:51 51°12.878 2°38.052 6.1 326 19.3 102330 71
2005-08-29 13:52 51°13.046 2°38.259 6.1 334 19.3 102340 71
2005-08-29 13:53 51°13.213 2°38.464 5.1 340 19.4 102340 72
2005-08-29 13:54 51°13.382 2°38.671 5.4 342 19.4 102340 72
2005-08-29 13:55 51°13.554 2°38.881 5.2 337 19.4 102330 71
2005-08-29 13:56 51°13.72 2°39.085 4.8 343 19.5 102330 71
2005-08-29 13:57 51°13.893 2°39.29 5.5 340 19.6 102330 72
2005-08-29 13:58 51°14.067 2°39.475 5.7 341 19.6 102330 71
2005-08-29 13:59 51°14.248 2°39.666 5.9 335 19.6 102330 71
2005-08-29 14:00 51°14.425 2°39.846 5.5 345 19.6 102330 70
2005-08-29 14:01 51°14.611 2°40.022 5.6 340 19.7 102330 71
2005-08-29 14:02 51°14.798 2°40.201 5.3 337 19.6 102330 70
2005-08-29 14:03 51°14.981 2°40.374 5.8 338 19.7 102340 70
2005-08-29 14:04 51°15.159 2°40.527 4.4 318 19.7 102340 70
2005-08-29 14:05 51°15.273 2°40.62 2.8 301 19.7 102340 70
2005-08-29 14:06 51°15.347 2°40.674 3.1 269 19.7 102340 71
2005-08-29 14:07 51°15.405 2°40.713 2.2 263 19.8 102340 71
2005-08-29 14:08 51°15.445 2°40.758 1.9 247 19.9 102340 70
2005-08-29 14:09 51°15.469 2°40.785 2.7 235 20 102330 70
2005-08-29 14:10 51°15.477 2°40.784 2.5 247 20 102330 70
2005-08-29 14:11 51°15.478 2°40.774 3.1 247 20.1 102330 71
2005-08-29 14:12 51°15.468 2°40.759 3.5 240 20 102340 70
2005-08-29 14:13 51°15.458 2°40.743 3.9 238 19.9 102330 69
2005-08-29 14:14 51°15.444 2°40.721 3.9 226 19.8 102340 69
2005-08-29 14:15 51°15.426 2°40.686 3.7 223 19.7 102340 69
2005-08-29 14:16 51°15.413 2°40.654 2.9 208 19.6 102340 70
2005-08-29 14:17 51°15.404 2°40.624 2 205 19.5 102340 72
2005-08-29 14:18 51°15.397 2°40.605 2.6 205 19.5 102340 74
2005-08-29 14:19 51°15.393 2°40.592 2.9 209 19.4 102340 73
2005-08-29 14:20 51°15.388 2°40.58 3.4 215 19.4 102340 73
2005-08-29 14:21 51°15.384 2°40.568 3 219 19.4 102340 73
2005-08-29 14:22 51°15.379 2°40.558 3.1 220 19.4 102340 73
2005-08-29 14:23 51°15.375 2°40.548 3.6 225 19.5 102340 74
2005-08-29 14:24 51°15.376 2°40.548 3.1 238 19.5 102340 73
2005-08-29 14:25 51°15.389 2°40.567 2.1 250 19.6 102340 72
2005-08-29 14:26 51°15.412 2°40.607 2.2 257 19.7 102350 72
2005-08-29 14:27 51°15.436 2°40.663 1.9 249 19.8 102350 72
2005-08-29 14:28 51°15.456 2°40.728 2 233 20 102350 72
2005-08-29 14:29 51°15.468 2°40.798 1.2 222 20.1 102350 71
2005-08-29 14:30 51°15.46 2°40.854 2.6 163 20.1 102350 71
2005-08-29 14:31 51°15.444 2°40.884 2.2 145 20 102340 69
2005-08-29 14:32 51°15.426 2°40.901 2.9 137 19.9 102340 71
2005-08-29 14:33 51°15.409 2°40.907 3 127 19.8 102340 72
2005-08-29 14:34 51°15.393 2°40.906 2.9 114 19.8 102340 71
2005-08-29 14:35 51°15.344 2°40.94 3.9 62 19.8 102340 71
2005-08-29 14:36 51°15.282 2°41.155 3.8 27 19.6 102340 71
2005-08-29 14:37 51°15.24 2°41.475 4 25 19.5 102340 71
2005-08-29 14:38 51°15.228 2°41.798 3.7 16 19.6 102340 72
2005-08-29 14:39 51°15.239 2°42.119 4 17 19.6 102340 70
2005-08-29 14:40 51°15.239 2°42.445 4.1 13 19.7 102340 71
2005-08-29 14:41 51°15.238 2°42.768 3.8 15 19.7 102340 71
2005-08-29 14:42 51°15.237 2°43.091 4 15 19.8 102340 71
2005-08-29 14:43 51°15.233 2°43.419 4 7 19.8 102340 71
2005-08-29 14:44 51°15.294 2°43.725 3.6 3 19.8 102340 72
2005-08-29 14:45 51°15.295 2°44.05 3.4 12 19.8 102340 70
2005-08-29 14:46 51°15.289 2°44.376 3.8 14 19.8 102340 71
2005-08-29 14:47 51°15.279 2°44.699 3.6 29 19.9 102340 71
2005-08-29 14:48 51°15.255 2°45.027 3.4 22 19.9 102340 71
2005-08-29 14:49 51°15.232 2°45.35 3.6 22 19.9 102350 71
2005-08-29 14:50 51°15.211 2°45.677 3.9 23 19.9 102340 71
2005-08-29 14:51 51°15.188 2°45.987 4.2 17 19.8 102340 71
2005-08-29 14:52 51°15.163 2°46.316 4 19 19.9 102350 70
2005-08-29 14:53 51°15.142 2°46.632 3.8 20 19.9 102340 71
2005-08-29 14:54 51°15.12 2°46.956 3.2 22 19.8 102340 70
2005-08-29 14:55 51°15.096 2°47.275 3 27 19.9 102340 70
2005-08-29 14:56 51°15.071 2°47.606 3.6 20 19.9 102340 71
2005-08-29 14:57 51°15.048 2°47.926 3.5 22 19.9 102340 71
2005-08-29 14:58 51°15.026 2°48.25 3.5 21 19.9 102340 71
2005-08-29 14:59 51°15.002 2°48.575 3.3 27 19.9 102340 71
2005-08-29 15:00 51°14.977 2°48.894 3.2 26 19.8 102340 70
2005-08-29 15:01 51°14.952 2°49.222 4.1 18 19.8 102340 70
2005-08-29 15:02 51°14.925 2°49.546 3.9 26 19.9 102340 71
2005-08-29 15:03 51°14.898 2°49.866 3.1 22 19.9 102340 71
2005-08-29 15:04 51°14.87 2°50.186 3.5 22 19.9 102340 71
2005-08-29 15:05 51°14.844 2°50.51 3.1 22 19.9 102340 71
2005-08-29 15:06 51°14.814 2°50.838 4.3 19 19.9 102340 71
2005-08-29 15:07 51°14.786 2°51.157 3.9 17 19.9 102340 71
2005-08-29 15:08 51°14.759 2°51.479 3.6 17 19.9 102340 71
2005-08-29 15:09 51°14.729 2°51.804 3.4 20 19.9 102340 71
2005-08-29 15:10 51°14.699 2°52.122 3.8 18 19.8 102340 70
2005-08-29 15:11 51°14.67 2°52.449 3.6 20 19.9 102350 69
2005-08-29 15:12 51°14.641 2°52.771 3.4 18 19.9 102350 70
2005-08-29 15:13 51°14.612 2°53.101 3.3 21 19.9 102350 71
2005-08-29 15:14 51°14.58 2°53.416 3.5 17 20 102350 70
2005-08-29 15:15 51°14.549 2°53.745 3.8 17 20 102350 71
2005-08-29 15:16 51°14.517 2°54.069 4 20 19.9 102350 70
2005-08-29 15:17 51°14.485 2°54.389 3.6 17 19.9 102350 69
2005-08-29 15:18 51°14.443 2°54.707 3.5 14 20 102350 70
2005-08-29 15:19 51°14.388 2°54.985 3.1 25 20 102350 69
2005-08-29 15:20 51°14.292 2°55.225 3.6 39 19.9 102350 70
2005-08-29 15:21 51°14.163 2°55.385 4.4 49 19.9 102350 72
2005-08-29 15:22 51°14.043 2°55.474 4.8 57 19.8 102350 70
2005-08-29 15:23 51°13.918 2°55.562 4.9 41 19.8 102350 66
2005-08-29 15:24 51°13.799 2°55.661 2.8 43 20 102350 64
2005-08-29 15:25 51°13.708 2°55.794 2.4 71 20.1 102350 62
2005-08-29 15:26 51°13.651 2°55.922 2.1 41 20.3 102350 62
2005-08-29 15:27 51°13.613 2°56.033 1.9 198 20.4 102340 61
2005-08-29 15:28 51°13.599 2°56.086 2.4 168 20.6 102350 60
2005-08-29 15:29 51°13.597 2°56.09 2.2 207 20.8 102340 60
2005-08-29 15:30 51°13.596 2°56.095 3.4 198 21 102340 58
2005-08-29 15:31 51°13.596 2°56.092 3.3 182 20.9 102340 59
2005-08-29 15:32 51°13.596 2°56.096 2 185 21.1 102340 58
2005-08-29 15:33 51°13.598 2°56.095 2.2 189 21.3 102340 58